Hauptseite
METAR-TAF:

METAR-TAF

Flughäfen :

Sion, Schweiz

Flughafen Sion

Breite: 46-13-11N, Länge: 007-19-36E, Höhe: 483 m

Beobachtung

Neuester Wetterbericht von vor 48 Minuten, um 00:50 UTC
Wind 3 kt aus unterschiedlichen Richtungen
Temperatur 8°C
Luftfeuchtigkeit 66%
Luftdruck 1015 hPa
Sichtweite 10 km oder mehr
Durchbrochene Bewölkung in der Höhe von 9000 ft

METAR: LSMS 250050Z AUTO VRB03KT 9999 BKN090 08/02 Q1015

Zeit: 02:38 (01:38 UTC)


TAF: fehlend

Wetterbeobachtungen und Prognosen von mehr als 4000 Flughäfen (METAR und TAF Bericht).

Die verfügbaren Stationen werden durch gelbe und rote Markierungen auf der Karte dargestellt.

Führen Sie die Maus auf sie, um den Namen der Station zu sehen.

Darauf klicken, um die Beobachtung von Wetterbeobachtungen und Prognosen zu sehen.

Um die Karte zu ändern : klicken Sie auf den grünen Tasten mit einem schwarzen Kreuz Zum Vergrößern, auf den grünen Button mit einem Gedankenstrich zu verkleinern, oder auf die grünen Pfeile für benachbarte Karten.


METAR-TAF: